createdAt,value
2018-12-06T00:00:27.158Z,5.90
2018-12-06T00:02:56.363Z,5.97
2018-12-06T00:05:25.612Z,5.93
2018-12-06T00:08:05.526Z,5.89
2018-12-06T00:10:34.387Z,5.91
2018-12-06T00:13:03.600Z,5.87
2018-12-06T00:15:32.797Z,5.84
2018-12-06T00:18:01.924Z,5.84
2018-12-06T00:20:31.246Z,5.93
2018-12-06T00:23:00.075Z,5.93
2018-12-06T00:25:29.174Z,5.92
2018-12-06T00:27:58.276Z,5.96
2018-12-06T00:30:35.823Z,5.94
2018-12-06T00:33:05.457Z,5.99
2018-12-06T00:35:34.626Z,5.93
2018-12-06T00:38:03.795Z,5.87
2018-12-06T00:40:33.161Z,5.78
2018-12-06T00:43:02.306Z,5.73
2018-12-06T00:45:31.187Z,5.64
2018-12-06T00:48:00.215Z,5.60
2018-12-06T00:50:29.485Z,5.51
2018-12-06T00:52:58.348Z,5.45
2018-12-06T00:55:27.175Z,5.41
2018-12-06T00:57:56.477Z,5.40
2018-12-06T01:00:25.532Z,5.43
2018-12-06T01:02:54.739Z,5.38
2018-12-06T01:05:23.965Z,5.41
2018-12-06T01:07:53.060Z,5.42
2018-12-06T01:10:21.961Z,5.44
2018-12-06T01:12:50.991Z,5.44
2018-12-06T01:15:19.945Z,5.47
2018-12-06T01:17:49.179Z,5.46
2018-12-06T01:20:18.326Z,5.45
2018-12-06T01:22:47.473Z,5.38
2018-12-06T01:25:16.735Z,5.34
2018-12-06T01:27:45.819Z,5.32
2018-12-06T01:30:14.756Z,5.31
2018-12-06T01:32:43.713Z,5.29
2018-12-06T01:35:12.991Z,5.31
2018-12-06T01:37:42.128Z,5.28
2018-12-06T01:40:11.497Z,5.26
2018-12-06T01:42:40.699Z,5.24
2018-12-06T01:45:09.665Z,5.27
2018-12-06T01:47:38.512Z,5.30
2018-12-06T01:50:07.715Z,5.36
2018-12-06T01:52:36.879Z,5.37
2018-12-06T01:55:06.297Z,5.39
2018-12-06T01:57:35.528Z,5.40
2018-12-06T02:00:05.020Z,5.40
2018-12-06T02:02:34.284Z,5.40
2018-12-06T02:05:03.395Z,5.34
2018-12-06T02:07:32.528Z,5.28
2018-12-06T02:10:01.641Z,5.24
2018-12-06T02:12:30.575Z,5.21
2018-12-06T02:14:59.824Z,5.21
2018-12-06T02:17:29.185Z,5.22
2018-12-06T02:19:58.448Z,5.23
2018-12-06T02:22:27.376Z,5.26
2018-12-06T02:24:56.633Z,5.27
2018-12-06T02:27:25.738Z,5.24
2018-12-06T02:29:54.833Z,5.23
2018-12-06T02:32:24.719Z,5.26
2018-12-06T02:34:53.666Z,5.24
2018-12-06T02:37:22.899Z,5.18
2018-12-06T02:39:51.769Z,5.23
2018-12-06T02:42:20.885Z,5.24
2018-12-06T02:44:50.203Z,5.28
2018-12-06T02:47:19.271Z,5.32
2018-12-06T02:49:48.496Z,5.36
2018-12-06T02:52:17.623Z,5.36
2018-12-06T02:54:46.703Z,5.35
2018-12-06T02:57:15.998Z,5.37
2018-12-06T02:59:45.184Z,5.34
2018-12-06T03:02:14.485Z,5.33
2018-12-06T03:04:43.783Z,5.38
2018-12-06T03:07:12.985Z,5.41
2018-12-06T03:09:42.308Z,5.43
2018-12-06T03:12:11.525Z,5.35
2018-12-06T03:14:40.770Z,5.36
2018-12-06T03:17:09.721Z,5.41
2018-12-06T03:19:38.963Z,5.39
2018-12-06T03:22:08.008Z,5.34
2018-12-06T03:24:37.100Z,5.31
2018-12-06T03:27:06.352Z,5.27
2018-12-06T03:29:35.648Z,5.20
2018-12-06T03:32:04.934Z,5.18
2018-12-06T03:34:33.752Z,5.20
2018-12-06T03:37:02.996Z,5.17
2018-12-06T03:39:31.967Z,5.06
2018-12-06T03:42:01.208Z,5.02
2018-12-06T03:44:32.501Z,5.02
2018-12-06T03:47:01.757Z,5.03
2018-12-06T03:49:30.903Z,5.03
2018-12-06T03:51:59.799Z,5.06
2018-12-06T03:54:28.712Z,5.08
2018-12-06T03:56:57.755Z,5.14
2018-12-06T03:59:26.766Z,5.18
2018-12-06T04:01:56.016Z,5.09
2018-12-06T04:04:25.224Z,5.20
2018-12-06T04:06:54.440Z,5.24
2018-12-06T04:09:23.666Z,5.23
2018-12-06T04:11:52.768Z,5.22
2018-12-06T04:14:21.907Z,5.30
2018-12-06T04:16:51.012Z,5.35
2018-12-06T04:19:20.191Z,5.42
2018-12-06T04:21:49.309Z,5.42
2018-12-06T04:24:18.396Z,5.38
2018-12-06T04:26:47.591Z,5.40
2018-12-06T04:29:16.541Z,5.24
2018-12-06T04:31:45.452Z,5.15
2018-12-06T04:34:14.629Z,5.22
2018-12-06T04:36:43.813Z,5.33
2018-12-06T04:39:12.764Z,5.27
2018-12-06T04:41:41.944Z,5.25
2018-12-06T04:44:11.057Z,5.19
2018-12-06T04:46:40.140Z,5.05
2018-12-06T04:49:41.219Z,4.99
2018-12-06T04:52:10.343Z,5.00
2018-12-06T04:54:39.531Z,4.92
2018-12-06T04:57:08.556Z,4.93
2018-12-06T04:59:37.712Z,4.95
2018-12-06T05:02:06.996Z,4.91
2018-12-06T05:04:36.479Z,4.90
2018-12-06T05:07:05.612Z,4.78
2018-12-06T05:09:34.519Z,4.84
2018-12-06T05:12:03.748Z,4.99
2018-12-06T05:14:32.752Z,4.99
2018-12-06T05:17:01.887Z,5.04
2018-12-06T05:19:30.656Z,4.95
2018-12-06T05:21:59.763Z,4.98
2018-12-06T05:24:28.846Z,5.00
2018-12-06T05:26:58.158Z,5.03
2018-12-06T05:29:27.315Z,5.19
2018-12-06T05:31:56.400Z,5.07
2018-12-06T05:34:25.614Z,4.96
2018-12-06T05:36:54.735Z,4.95
2018-12-06T05:39:24.020Z,5.01
2018-12-06T05:41:53.023Z,4.95
2018-12-06T05:44:22.096Z,4.97
2018-12-06T05:46:51.200Z,5.11
2018-12-06T05:49:20.397Z,5.16
2018-12-06T05:51:49.481Z,5.21
2018-12-06T05:54:18.510Z,5.09
2018-12-06T05:56:47.663Z,5.16
2018-12-06T05:59:16.592Z,5.29
2018-12-06T06:01:45.766Z,5.29
2018-12-06T06:04:14.692Z,5.24
2018-12-06T06:06:43.884Z,5.28
2018-12-06T06:09:13.096Z,5.34
2018-12-06T06:11:42.004Z,5.26
2018-12-06T06:14:11.203Z,5.18
2018-12-06T06:16:40.138Z,5.29
2018-12-06T06:19:09.311Z,5.30
2018-12-06T06:21:38.496Z,5.34
2018-12-06T06:24:07.618Z,5.31
2018-12-06T06:26:36.787Z,5.26
2018-12-06T06:29:05.900Z,5.24
2018-12-06T06:31:35.036Z,5.26
2018-12-06T06:34:03.883Z,5.22
2018-12-06T06:36:33.022Z,5.26
2018-12-06T06:39:01.844Z,5.21
2018-12-06T06:41:31.063Z,5.25
2018-12-06T06:43:59.783Z,5.26
2018-12-06T06:46:28.687Z,5.32
2018-12-06T06:48:57.879Z,5.36
2018-12-06T06:51:27.122Z,5.45
2018-12-06T06:53:56.331Z,5.55
2018-12-06T06:56:25.438Z,5.62
2018-12-06T06:58:54.403Z,5.78
2018-12-06T07:01:23.299Z,5.79
2018-12-06T07:03:52.259Z,5.90
2018-12-06T07:06:21.542Z,5.96
2018-12-06T07:08:50.737Z,6.03
2018-12-06T07:11:19.979Z,6.11
2018-12-06T07:13:49.227Z,6.15
2018-12-06T07:16:18.431Z,6.36
2018-12-06T07:18:47.650Z,6.42
2018-12-06T07:21:16.790Z,6.54
2018-12-06T07:23:45.669Z,6.61
2018-12-06T07:26:14.848Z,6.67
2018-12-06T07:28:44.253Z,6.77
2018-12-06T07:31:13.451Z,6.88
2018-12-06T07:33:42.414Z,6.98
2018-12-06T07:36:11.382Z,7.06
2018-12-06T07:38:40.588Z,7.13
2018-12-06T07:41:09.445Z,7.23
2018-12-06T07:43:38.574Z,7.30
2018-12-06T07:49:00.174Z,7.33
2018-12-06T07:51:28.995Z,7.30
2018-12-06T07:53:58.159Z,7.35
2018-12-06T07:56:26.964Z,7.47
2018-12-06T07:58:55.799Z,7.58
2018-12-06T08:01:24.930Z,7.79
2018-12-06T08:03:54.160Z,7.93
2018-12-06T08:06:23.121Z,7.93
2018-12-06T08:08:52.204Z,7.96
2018-12-06T08:11:21.052Z,8.02
2018-12-06T08:13:50.228Z,7.76
2018-12-06T08:16:19.567Z,7.64
2018-12-06T08:18:48.619Z,7.71
2018-12-06T08:21:17.527Z,7.77
2018-12-06T08:23:46.874Z,7.80
2018-12-06T08:26:15.952Z,7.79
2018-12-06T08:28:45.112Z,7.72
2018-12-06T08:31:14.271Z,7.80
2018-12-06T08:33:43.455Z,7.88
2018-12-06T08:36:12.550Z,8.02
2018-12-06T08:38:41.643Z,8.09
2018-12-06T08:41:10.623Z,8.18
2018-12-06T08:43:39.771Z,8.30
2018-12-06T08:46:08.679Z,8.30
2018-12-06T08:48:37.860Z,8.43
2018-12-06T08:51:07.219Z,8.54
2018-12-06T08:53:36.030Z,8.61
2018-12-06T08:56:05.211Z,8.61
2018-12-06T08:58:34.379Z,8.67
2018-12-06T09:01:03.530Z,8.68
2018-12-06T09:03:32.524Z,8.79
2018-12-06T09:06:01.828Z,9.00
2018-12-06T09:08:30.933Z,9.19
2018-12-06T09:10:59.999Z,9.35
2018-12-06T09:13:29.144Z,9.47
2018-12-06T09:15:57.987Z,9.53
2018-12-06T09:18:27.104Z,9.47
2018-12-06T09:20:56.196Z,9.43
2018-12-06T09:23:25.291Z,9.44
2018-12-06T09:25:54.031Z,9.40
2018-12-06T09:28:23.340Z,9.38
2018-12-06T09:30:52.376Z,9.26
2018-12-06T09:33:21.536Z,9.19
2018-12-06T09:35:50.379Z,9.00
2018-12-06T09:38:19.540Z,8.83
2018-12-06T09:40:48.804Z,8.84
2018-12-06T09:43:17.829Z,8.86
2018-12-06T09:45:47.055Z,8.79
2018-12-06T09:48:16.238Z,8.81
2018-12-06T09:50:45.424Z,8.64
2018-12-06T09:53:14.669Z,8.57
2018-12-06T09:55:43.448Z,8.78
2018-12-06T09:58:12.482Z,8.81
2018-12-06T10:00:41.293Z,9.02
2018-12-06T10:03:10.197Z,9.34
2018-12-06T10:05:39.176Z,9.55
2018-12-06T10:08:08.053Z,9.52
2018-12-06T10:10:37.003Z,9.44
2018-12-06T10:13:05.923Z,9.58
2018-12-06T10:15:34.886Z,9.95
2018-12-06T10:18:03.724Z,11.09
2018-12-06T10:20:32.680Z,11.90
2018-12-06T10:23:01.507Z,11.49
2018-12-06T10:25:30.374Z,11.40
2018-12-06T10:27:59.198Z,12.40
2018-12-06T10:30:28.049Z,13.75
2018-12-06T10:32:56.967Z,15.24
2018-12-06T10:35:25.932Z,15.67
2018-12-06T10:37:54.739Z,16.00
2018-12-06T10:40:23.610Z,16.41
2018-12-06T10:42:52.540Z,17.54
2018-12-06T10:45:21.458Z,18.43
2018-12-06T10:47:50.574Z,18.89
2018-12-06T10:50:19.412Z,19.19
2018-12-06T10:52:48.381Z,19.73
2018-12-06T10:55:18.352Z,19.28
2018-12-06T10:57:47.476Z,18.87
2018-12-06T11:00:21.371Z,17.80
2018-12-06T11:02:52.496Z,17.22
2018-12-06T11:05:21.651Z,16.25
2018-12-06T11:07:50.906Z,15.03
2018-12-06T11:10:19.744Z,14.36
2018-12-06T11:12:48.741Z,13.82
2018-12-06T11:15:17.575Z,14.48
2018-12-06T11:17:46.482Z,16.44
2018-12-06T11:20:15.472Z,18.51
2018-12-06T11:22:44.466Z,20.57
2018-12-06T11:25:13.480Z,22.26
2018-12-06T11:27:42.320Z,23.32
2018-12-06T11:30:11.636Z,22.87
2018-12-06T11:32:40.525Z,22.62
2018-12-06T11:35:09.455Z,23.93
2018-12-06T11:37:38.288Z,23.91
2018-12-06T11:40:07.258Z,23.13
2018-12-06T11:42:36.162Z,21.39
2018-12-06T11:45:05.906Z,19.83
2018-12-06T11:47:34.797Z,18.59
2018-12-06T11:50:03.687Z,18.75
2018-12-06T11:52:32.544Z,19.14
2018-12-06T11:55:01.468Z,18.81
2018-12-06T11:57:30.427Z,17.40
2018-12-06T11:59:59.269Z,16.18
2018-12-06T12:02:28.167Z,15.20
2018-12-06T12:04:57.026Z,14.48
2018-12-06T12:07:25.941Z,15.60
2018-12-06T12:09:54.854Z,17.85
2018-12-06T12:12:23.727Z,19.84
2018-12-06T12:14:52.736Z,21.60
2018-12-06T12:17:21.590Z,21.51
2018-12-06T12:19:50.467Z,21.69
2018-12-06T12:22:19.461Z,22.42
2018-12-06T12:24:48.442Z,23.37
2018-12-06T12:27:17.359Z,24.31
2018-12-06T12:29:46.364Z,24.38
2018-12-06T12:32:15.223Z,24.22
2018-12-06T12:34:44.012Z,23.34
2018-12-06T12:37:12.867Z,24.01
2018-12-06T12:39:41.827Z,24.16
2018-12-06T12:42:10.863Z,23.79
2018-12-06T12:44:39.775Z,23.75
2018-12-06T12:47:08.706Z,24.45
2018-12-06T12:49:37.556Z,24.90
2018-12-06T12:52:06.369Z,24.97
2018-12-06T12:54:35.541Z,24.39
2018-12-06T12:57:04.417Z,23.80
2018-12-06T12:59:33.362Z,23.41
2018-12-06T13:02:02.349Z,23.10
2018-12-06T13:04:31.228Z,22.56
2018-12-06T13:07:12.175Z,21.70
2018-12-06T13:09:41.092Z,21.46
2018-12-06T13:12:09.910Z,20.36
2018-12-06T13:14:38.884Z,19.19
2018-12-06T13:17:07.755Z,17.95
2018-12-06T13:19:36.726Z,18.39
2018-12-06T13:22:05.617Z,18.28
2018-12-06T13:24:34.481Z,17.61
2018-12-06T13:27:03.499Z,16.40
2018-12-06T13:29:32.469Z,14.65
2018-12-06T13:32:01.328Z,14.09
2018-12-06T13:34:30.167Z,13.65
2018-12-06T13:36:58.954Z,12.66
2018-12-06T13:39:27.937Z,11.79
2018-12-06T13:41:56.750Z,11.26
2018-12-06T13:44:25.665Z,10.49
2018-12-06T13:46:54.592Z,9.99
2018-12-06T13:49:23.405Z,9.78
2018-12-06T13:51:52.416Z,9.70
2018-12-06T13:54:26.975Z,9.79
2018-12-06T13:56:52.711Z,9.64
2018-12-06T13:59:21.525Z,9.58
2018-12-06T14:01:50.488Z,9.33
2018-12-06T14:04:19.407Z,9.12
2018-12-06T14:06:48.171Z,8.74
2018-12-06T14:09:17.264Z,8.41
2018-12-06T14:11:46.572Z,8.19
2018-12-06T14:14:15.531Z,7.93
2018-12-06T14:16:44.780Z,7.76
2018-12-06T14:19:13.963Z,7.68
2018-12-06T14:21:43.252Z,7.87
2018-12-06T14:24:12.469Z,7.71
2018-12-06T14:26:41.742Z,7.55
2018-12-06T14:29:10.500Z,7.54
2018-12-06T14:31:39.693Z,7.17
2018-12-06T14:34:08.871Z,6.79
2018-12-06T14:36:38.108Z,6.55
2018-12-06T14:39:09.564Z,6.40
2018-12-06T14:41:38.775Z,6.26
2018-12-06T14:44:07.889Z,6.10
2018-12-06T14:46:37.003Z,5.95
2018-12-06T14:49:05.898Z,5.83
2018-12-06T14:51:35.104Z,5.66
2018-12-06T14:54:04.552Z,5.54
2018-12-06T14:56:33.695Z,5.42
2018-12-06T14:59:02.839Z,5.31
2018-12-06T15:01:31.908Z,5.18
2018-12-06T15:04:01.263Z,4.94
2018-12-06T15:06:37.382Z,5.00
2018-12-06T15:09:01.342Z,5.02
2018-12-06T15:11:30.378Z,4.80
2018-12-06T15:13:59.507Z,4.58
2018-12-06T15:16:28.755Z,4.58
2018-12-06T15:18:57.904Z,4.56
2018-12-06T15:21:26.857Z,4.41
2018-12-06T15:23:56.053Z,4.31
2018-12-06T15:26:25.218Z,4.31
2018-12-06T15:28:54.297Z,4.17
2018-12-06T15:31:23.471Z,4.02
2018-12-06T15:33:52.455Z,4.00
2018-12-06T15:36:21.341Z,4.18
2018-12-06T15:38:50.304Z,4.11
2018-12-06T15:41:19.367Z,4.06
2018-12-06T15:43:48.484Z,4.07
2018-12-06T15:49:00.787Z,3.93
2018-12-06T15:51:29.859Z,3.92
2018-12-06T15:53:59.019Z,3.91
2018-12-06T15:56:28.146Z,3.79
2018-12-06T15:58:57.168Z,3.78
2018-12-06T16:01:26.249Z,3.62
2018-12-06T16:03:55.280Z,3.43
2018-12-06T16:06:24.480Z,3.35
2018-12-06T16:08:53.728Z,3.32
2018-12-06T16:11:22.868Z,3.28
2018-12-06T16:13:52.029Z,3.28
2018-12-06T16:16:21.368Z,3.17
2018-12-06T16:18:50.954Z,3.17
2018-12-06T16:21:20.124Z,3.09
2018-12-06T16:23:49.239Z,2.96
2018-12-06T16:26:18.416Z,2.87
2018-12-06T16:28:47.603Z,2.80
2018-12-06T16:31:16.763Z,2.73
2018-12-06T16:33:45.999Z,2.72
2018-12-06T16:36:15.214Z,2.67
2018-12-06T16:38:43.962Z,2.60
2018-12-06T16:41:13.169Z,2.57
2018-12-06T16:43:42.307Z,2.51
2018-12-06T16:46:11.884Z,2.52
2018-12-06T16:48:41.096Z,2.49
2018-12-06T16:51:10.183Z,2.52
2018-12-06T16:53:38.995Z,2.43
2018-12-06T16:56:08.217Z,2.37
2018-12-06T16:58:37.250Z,2.32
2018-12-06T17:01:06.496Z,2.24
2018-12-06T17:03:35.295Z,2.24
2018-12-06T17:06:04.337Z,2.29
2018-12-06T17:08:33.488Z,2.32
2018-12-06T17:11:02.447Z,2.26
2018-12-06T17:13:31.456Z,2.20
2018-12-06T17:16:00.540Z,2.19
2018-12-06T17:18:29.767Z,2.27
2018-12-06T17:20:59.051Z,2.28
2018-12-06T17:23:28.256Z,2.29
2018-12-06T17:25:57.413Z,2.25
2018-12-06T17:28:26.309Z,2.24
2018-12-06T17:30:55.387Z,2.19
2018-12-06T17:33:24.583Z,2.11
2018-12-06T17:35:53.748Z,2.17
2018-12-06T17:38:22.971Z,2.16
2018-12-06T17:40:52.081Z,2.07
2018-12-06T17:43:20.918Z,2.08
2018-12-06T17:45:50.005Z,2.08
2018-12-06T17:48:18.982Z,2.08
2018-12-06T17:50:47.881Z,2.10
2018-12-06T17:53:17.135Z,2.08
2018-12-06T17:55:56.547Z,1.98
2018-12-06T17:58:25.566Z,1.80
2018-12-06T18:00:55.148Z,1.69
2018-12-06T18:03:25.470Z,1.62
2018-12-06T18:05:54.332Z,1.62
2018-12-06T18:08:23.157Z,1.65
2018-12-06T18:10:52.356Z,1.73
2018-12-06T18:13:21.491Z,1.71
2018-12-06T18:15:51.463Z,1.62
2018-12-06T18:18:20.646Z,1.60
2018-12-06T18:20:49.990Z,1.62
2018-12-06T18:23:19.045Z,1.60
2018-12-06T18:25:48.162Z,1.58
2018-12-06T18:28:17.217Z,1.61
2018-12-06T18:30:47.099Z,1.54
2018-12-06T18:33:16.503Z,1.53
2018-12-06T18:35:45.667Z,1.55
2018-12-06T18:38:14.926Z,1.56
2018-12-06T18:40:44.005Z,1.53
2018-12-06T18:43:12.924Z,1.50
2018-12-06T18:45:41.743Z,1.52
2018-12-06T18:48:10.703Z,1.44
2018-12-06T18:50:39.632Z,1.36
2018-12-06T18:53:08.484Z,1.35
2018-12-06T18:55:37.715Z,1.29
2018-12-06T18:58:06.854Z,1.39
2018-12-06T19:00:36.073Z,1.48
2018-12-06T19:03:05.379Z,1.55
2018-12-06T19:05:34.408Z,1.59
2018-12-06T19:08:03.292Z,1.61
2018-12-06T19:10:32.494Z,1.59
2018-12-06T19:13:01.580Z,1.46
2018-12-06T19:15:30.856Z,1.38
2018-12-06T19:18:00.232Z,1.40
2018-12-06T19:20:29.290Z,1.28
2018-12-06T19:22:58.437Z,1.33
2018-12-06T19:25:27.253Z,1.30
2018-12-06T19:27:56.453Z,1.40
2018-12-06T19:30:25.812Z,1.52
2018-12-06T19:32:57.870Z,1.48
2018-12-06T19:35:25.941Z,1.35
2018-12-06T19:37:55.043Z,1.38
2018-12-06T19:40:23.972Z,1.28
2018-12-06T19:42:52.942Z,1.12
2018-12-06T19:45:21.801Z,1.28
2018-12-06T19:47:50.855Z,1.31
2018-12-06T19:50:19.956Z,1.32
2018-12-06T19:52:49.111Z,1.25
2018-12-06T19:55:19.423Z,1.35
2018-12-06T19:57:48.710Z,1.47
2018-12-06T20:00:18.124Z,1.33
2018-12-06T20:02:46.967Z,1.19
2018-12-06T20:05:15.886Z,1.07
2018-12-06T20:07:44.779Z,0.97
2018-12-06T20:10:14.211Z,0.92
2018-12-06T20:12:43.074Z,0.87
2018-12-06T20:15:11.931Z,0.85
2018-12-06T20:17:41.580Z,0.90
2018-12-06T20:20:10.372Z,0.84
2018-12-06T20:22:39.348Z,0.89
2018-12-06T20:25:08.367Z,0.91
2018-12-06T20:27:37.274Z,1.01
2018-12-06T20:30:06.651Z,1.07
2018-12-06T20:32:35.753Z,1.04
2018-12-06T20:35:05.078Z,0.99
2018-12-06T20:37:33.940Z,0.95
2018-12-06T20:40:02.911Z,0.93
2018-12-06T20:42:31.715Z,0.88
2018-12-06T20:45:00.610Z,0.86
2018-12-06T20:47:29.602Z,0.76
2018-12-06T20:49:58.363Z,0.91
2018-12-06T20:52:27.245Z,1.03
2018-12-06T20:54:56.067Z,1.02
2018-12-06T20:57:24.919Z,1.09
2018-12-06T20:59:53.743Z,0.93
2018-12-06T21:02:22.654Z,0.90
2018-12-06T21:04:51.629Z,0.86
2018-12-06T21:07:20.422Z,0.97
2018-12-06T21:09:49.229Z,1.05
2018-12-06T21:12:18.091Z,1.08
2018-12-06T21:14:46.959Z,1.05
2018-12-06T21:17:15.873Z,1.03
2018-12-06T21:19:44.744Z,1.05
2018-12-06T21:22:13.695Z,1.03
2018-12-06T21:24:42.679Z,0.99
2018-12-06T21:27:11.545Z,0.99
2018-12-06T21:29:40.396Z,1.14
2018-12-06T21:32:09.272Z,1.26
2018-12-06T21:34:38.284Z,1.27
2018-12-06T21:37:07.093Z,1.27
2018-12-06T21:39:36.011Z,1.27
2018-12-06T21:42:04.996Z,1.23
2018-12-06T21:44:33.856Z,1.18
2018-12-06T21:47:02.651Z,1.12
2018-12-06T21:49:31.647Z,1.05
2018-12-06T21:52:00.637Z,0.99
2018-12-06T21:54:29.495Z,0.94
2018-12-06T21:56:58.273Z,0.91
2018-12-06T21:59:27.139Z,0.88
2018-12-06T22:02:05.720Z,0.95
2018-12-06T22:04:34.583Z,1.00
2018-12-06T22:07:03.528Z,1.04
2018-12-06T22:09:32.410Z,1.21
2018-12-06T22:12:01.233Z,1.34
2018-12-06T22:14:30.068Z,1.44
2018-12-06T22:16:58.862Z,1.53
2018-12-06T22:19:27.764Z,1.60
2018-12-06T22:21:56.654Z,1.76
2018-12-06T22:24:25.430Z,1.92
2018-12-06T22:26:54.334Z,1.96
2018-12-06T22:29:23.078Z,1.93
2018-12-06T22:31:51.944Z,2.02
2018-12-06T22:34:20.695Z,2.00
2018-12-06T22:36:49.644Z,1.92
2018-12-06T22:39:18.632Z,1.87
2018-12-06T22:41:47.451Z,1.88
2018-12-06T22:44:16.346Z,1.92
2018-12-06T22:46:45.145Z,1.95
2018-12-06T22:49:14.111Z,1.91
2018-12-06T22:51:42.966Z,1.86
2018-12-06T22:54:12.007Z,1.78
2018-12-06T22:56:40.841Z,1.77
2018-12-06T22:59:09.778Z,1.71
2018-12-06T23:01:40.981Z,1.67
2018-12-06T23:04:10.247Z,1.58
2018-12-06T23:06:39.301Z,1.55
2018-12-06T23:09:09.826Z,1.49
2018-12-06T23:11:39.448Z,1.42
2018-12-06T23:14:08.399Z,1.46
2018-12-06T23:16:37.534Z,1.39
2018-12-06T23:19:06.630Z,1.45
2018-12-06T23:21:35.519Z,1.37
2018-12-06T23:24:04.410Z,1.40
2018-12-06T23:26:33.295Z,1.37
2018-12-06T23:29:02.111Z,1.37
2018-12-06T23:31:30.948Z,1.42
2018-12-06T23:33:59.842Z,1.43
2018-12-06T23:36:28.719Z,1.39
2018-12-06T23:38:57.567Z,1.35
2018-12-06T23:41:26.536Z,1.32
2018-12-06T23:43:55.373Z,1.23
2018-12-06T23:46:24.316Z,1.25
2018-12-06T23:48:53.107Z,1.17
2018-12-06T23:51:40.119Z,1.13
2018-12-06T23:54:08.927Z,1.05
2018-12-06T23:56:37.779Z,0.97
2018-12-06T23:59:06.592Z,1.00
